sensor_id;sensor_type;location;lat;lon;timestamp;P1;durP1;ratioP1;P2;durP2;ratioP2
29378;SDS011;16362;47.202;15.258;2022-10-16T00:01:23;47.65;;;26.95;;
29378;SDS011;16362;47.202;15.258;2022-10-16T00:03:52;50.20;;;25.40;;
29378;SDS011;16362;47.202;15.258;2022-10-16T00:06:20;46.03;;;25.92;;
29378;SDS011;16362;47.202;15.258;2022-10-16T00:08:48;38.17;;;24.20;;
29378;SDS011;16362;47.202;15.258;2022-10-16T00:11:16;39.28;;;24.10;;
29378;SDS011;16362;47.202;15.258;2022-10-16T00:13:48;36.22;;;18.63;;
29378;SDS011;16362;47.202;15.258;2022-10-16T00:16:16;40.15;;;22.83;;
29378;SDS011;16362;47.202;15.258;2022-10-16T00:18:43;36.55;;;22.45;;
29378;SDS011;16362;47.202;15.258;2022-10-16T00:21:12;37.95;;;24.42;;
29378;SDS011;16362;47.202;15.258;2022-10-16T00:23:40;43.45;;;24.23;;
29378;SDS011;16362;47.202;15.258;2022-10-16T00:26:09;31.45;;;21.17;;
29378;SDS011;16362;47.202;15.258;2022-10-16T00:28:39;41.97;;;24.95;;
29378;SDS011;16362;47.202;15.258;2022-10-16T00:31:07;43.00;;;24.23;;
29378;SDS011;16362;47.202;15.258;2022-10-16T00:33:36;33.17;;;21.00;;
29378;SDS011;16362;47.202;15.258;2022-10-16T00:36:05;31.35;;;20.70;;
29378;SDS011;16362;47.202;15.258;2022-10-16T00:38:34;27.45;;;18.20;;
29378;SDS011;16362;47.202;15.258;2022-10-16T00:41:01;41.45;;;23.25;;
29378;SDS011;16362;47.202;15.258;2022-10-16T00:46:25;32.35;;;19.63;;
29378;SDS011;16362;47.202;15.258;2022-10-16T00:48:54;33.00;;;17.80;;
29378;SDS011;16362;47.202;15.258;2022-10-16T00:51:26;29.17;;;18.52;;
29378;SDS011;16362;47.202;15.258;2022-10-16T00:53:58;34.55;;;19.58;;
29378;SDS011;16362;47.202;15.258;2022-10-16T00:56:26;26.55;;;18.02;;
29378;SDS011;16362;47.202;15.258;2022-10-16T00:58:53;34.40;;;18.98;;
29378;SDS011;16362;47.202;15.258;2022-10-16T01:01:20;27.75;;;19.05;;
29378;SDS011;16362;47.202;15.258;2022-10-16T01:03:47;28.77;;;18.23;;
29378;SDS011;16362;47.202;15.258;2022-10-16T01:06:34;33.33;;;18.27;;
29378;SDS011;16362;47.202;15.258;2022-10-16T01:09:27;29.77;;;17.55;;
29378;SDS011;16362;47.202;15.258;2022-10-16T01:12:17;27.48;;;17.70;;
29378;SDS011;16362;47.202;15.258;2022-10-16T01:15:15;25.70;;;18.52;;
29378;SDS011;16362;47.202;15.258;2022-10-16T01:17:51;31.13;;;18.10;;
29378;SDS011;16362;47.202;15.258;2022-10-16T01:23:02;25.60;;;16.88;;
29378;SDS011;16362;47.202;15.258;2022-10-16T01:29:14;32.45;;;16.27;;
29378;SDS011;16362;47.202;15.258;2022-10-16T01:31:42;33.15;;;18.17;;
29378;SDS011;16362;47.202;15.258;2022-10-16T01:34:15;48.47;;;19.15;;
29378;SDS011;16362;47.202;15.258;2022-10-16T01:36:46;39.72;;;17.85;;
29378;SDS011;16362;47.202;15.258;2022-10-16T01:39:18;29.02;;;17.58;;
29378;SDS011;16362;47.202;15.258;2022-10-16T01:41:49;24.67;;;15.52;;
29378;SDS011;16362;47.202;15.258;2022-10-16T01:44:31;23.35;;;16.60;;
29378;SDS011;16362;47.202;15.258;2022-10-16T01:47:00;32.65;;;16.23;;
29378;SDS011;16362;47.202;15.258;2022-10-16T01:49:28;25.38;;;15.05;;
29378;SDS011;16362;47.202;15.258;2022-10-16T01:51:59;30.42;;;16.83;;
29378;SDS011;16362;47.202;15.258;2022-10-16T01:54:28;24.23;;;15.77;;
29378;SDS011;16362;47.202;15.258;2022-10-16T01:56:58;32.10;;;15.45;;
29378;SDS011;16362;47.202;15.258;2022-10-16T01:59:26;23.08;;;13.95;;
29378;SDS011;16362;47.202;15.258;2022-10-16T02:02:01;29.83;;;14.82;;
29378;SDS011;16362;47.202;15.258;2022-10-16T02:07:15;31.45;;;18.58;;
29378;SDS011;16362;47.202;15.258;2022-10-16T02:09:42;26.95;;;17.20;;
29378;SDS011;16362;47.202;15.258;2022-10-16T02:12:21;28.33;;;17.00;;
29378;SDS011;16362;47.202;15.258;2022-10-16T02:14:53;33.05;;;17.27;;
29378;SDS011;16362;47.202;15.258;2022-10-16T02:17:21;23.75;;;16.85;;
29378;SDS011;16362;47.202;15.258;2022-10-16T02:19:48;28.23;;;16.17;;
29378;SDS011;16362;47.202;15.258;2022-10-16T02:22:20;34.20;;;17.50;;
29378;SDS011;16362;47.202;15.258;2022-10-16T02:24:53;26.10;;;16.45;;
29378;SDS011;16362;47.202;15.258;2022-10-16T02:30:25;27.27;;;16.30;;
29378;SDS011;16362;47.202;15.258;2022-10-16T02:32:57;26.85;;;16.70;;
29378;SDS011;16362;47.202;15.258;2022-10-16T02:35:26;29.80;;;16.05;;
29378;SDS011;16362;47.202;15.258;2022-10-16T02:37:54;35.50;;;17.73;;
29378;SDS011;16362;47.202;15.258;2022-10-16T02:40:22;26.63;;;17.40;;
29378;SDS011;16362;47.202;15.258;2022-10-16T02:42:51;30.23;;;16.55;;
29378;SDS011;16362;47.202;15.258;2022-10-16T02:45:19;24.33;;;16.60;;
29378;SDS011;16362;47.202;15.258;2022-10-16T02:47:46;31.13;;;16.70;;
29378;SDS011;16362;47.202;15.258;2022-10-16T02:50:13;28.95;;;16.80;;
29378;SDS011;16362;47.202;15.258;2022-10-16T02:52:40;27.70;;;15.77;;
29378;SDS011;16362;47.202;15.258;2022-10-16T02:55:07;29.95;;;15.60;;
29378;SDS011;16362;47.202;15.258;2022-10-16T02:57:34;23.45;;;14.93;;
29378;SDS011;16362;47.202;15.258;2022-10-16T03:00:05;28.23;;;15.45;;
29378;SDS011;16362;47.202;15.258;2022-10-16T03:02:33;27.15;;;15.55;;
29378;SDS011;16362;47.202;15.258;2022-10-16T03:04:59;26.02;;;16.15;;
29378;SDS011;16362;47.202;15.258;2022-10-16T03:07:26;21.67;;;15.13;;
29378;SDS011;16362;47.202;15.258;2022-10-16T03:09:53;27.58;;;15.75;;
29378;SDS011;16362;47.202;15.258;2022-10-16T03:12:21;19.35;;;15.27;;
29378;SDS011;16362;47.202;15.258;2022-10-16T03:14:48;23.75;;;14.90;;
29378;SDS011;16362;47.202;15.258;2022-10-16T03:17:14;21.98;;;14.85;;
29378;SDS011;16362;47.202;15.258;2022-10-16T03:19:43;28.42;;;15.05;;
29378;SDS011;16362;47.202;15.258;2022-10-16T03:22:10;21.88;;;14.23;;
29378;SDS011;16362;47.202;15.258;2022-10-16T03:24:36;20.83;;;15.07;;
29378;SDS011;16362;47.202;15.258;2022-10-16T03:27:03;28.65;;;13.98;;
29378;SDS011;16362;47.202;15.258;2022-10-16T03:29:30;19.13;;;14.10;;
29378;SDS011;16362;47.202;15.258;2022-10-16T03:31:58;23.10;;;13.52;;
29378;SDS011;16362;47.202;15.258;2022-10-16T03:34:25;20.48;;;14.07;;
29378;SDS011;16362;47.202;15.258;2022-10-16T03:36:52;22.20;;;13.70;;
29378;SDS011;16362;47.202;15.258;2022-10-16T03:39:19;35.08;;;13.38;;
29378;SDS011;16362;47.202;15.258;2022-10-16T03:41:46;21.52;;;13.73;;
29378;SDS011;16362;47.202;15.258;2022-10-16T03:44:13;33.08;;;14.68;;
29378;SDS011;16362;47.202;15.258;2022-10-16T03:46:39;29.63;;;14.25;;
29378;SDS011;16362;47.202;15.258;2022-10-16T03:49:06;22.15;;;14.55;;
29378;SDS011;16362;47.202;15.258;2022-10-16T03:51:35;24.73;;;14.40;;
29378;SDS011;16362;47.202;15.258;2022-10-16T03:54:02;24.50;;;13.25;;
29378;SDS011;16362;47.202;15.258;2022-10-16T03:56:29;30.33;;;14.15;;
29378;SDS011;16362;47.202;15.258;2022-10-16T03:58:55;23.35;;;14.00;;
29378;SDS011;16362;47.202;15.258;2022-10-16T04:01:22;26.10;;;13.43;;
29378;SDS011;16362;47.202;15.258;2022-10-16T04:03:49;26.73;;;13.52;;
29378;SDS011;16362;47.202;15.258;2022-10-16T04:06:15;16.52;;;12.85;;
29378;SDS011;16362;47.202;15.258;2022-10-16T04:08:42;18.38;;;13.15;;
29378;SDS011;16362;47.202;15.258;2022-10-16T04:11:10;18.00;;;13.23;;
29378;SDS011;16362;47.202;15.258;2022-10-16T04:13:36;27.77;;;12.90;;
29378;SDS011;16362;47.202;15.258;2022-10-16T04:16:03;21.85;;;13.07;;
29378;SDS011;16362;47.202;15.258;2022-10-16T04:18:30;23.65;;;13.00;;
29378;SDS011;16362;47.202;15.258;2022-10-16T04:20:56;17.17;;;11.20;;
29378;SDS011;16362;47.202;15.258;2022-10-16T04:23:27;18.00;;;12.57;;
29378;SDS011;16362;47.202;15.258;2022-10-16T04:25:54;14.05;;;11.13;;
29378;SDS011;16362;47.202;15.258;2022-10-16T04:28:21;14.90;;;10.80;;
29378;SDS011;16362;47.202;15.258;2022-10-16T04:30:48;16.42;;;10.05;;
29378;SDS011;16362;47.202;15.258;2022-10-16T04:33:14;17.40;;;10.55;;
29378;SDS011;16362;47.202;15.258;2022-10-16T04:35:41;18.90;;;9.00;;
29378;SDS011;16362;47.202;15.258;2022-10-16T04:38:08;24.75;;;11.65;;
29378;SDS011;16362;47.202;15.258;2022-10-16T04:40:34;21.77;;;11.57;;
29378;SDS011;16362;47.202;15.258;2022-10-16T04:43:04;28.17;;;13.05;;
29378;SDS011;16362;47.202;15.258;2022-10-16T04:45:32;21.77;;;12.80;;
29378;SDS011;16362;47.202;15.258;2022-10-16T04:47:58;17.17;;;12.82;;
29378;SDS011;16362;47.202;15.258;2022-10-16T04:50:26;21.35;;;11.68;;
29378;SDS011;16362;47.202;15.258;2022-10-16T04:52:52;19.13;;;11.40;;
29378;SDS011;16362;47.202;15.258;2022-10-16T04:55:19;18.58;;;12.10;;
29378;SDS011;16362;47.202;15.258;2022-10-16T04:57:46;19.85;;;12.15;;
29378;SDS011;16362;47.202;15.258;2022-10-16T05:00:13;19.48;;;13.07;;
29378;SDS011;16362;47.202;15.258;2022-10-16T05:02:40;16.85;;;11.05;;
29378;SDS011;16362;47.202;15.258;2022-10-16T05:05:06;18.95;;;11.82;;
29378;SDS011;16362;47.202;15.258;2022-10-16T05:07:33;20.20;;;10.05;;
29378;SDS011;16362;47.202;15.258;2022-10-16T05:10:00;23.25;;;11.70;;
29378;SDS011;16362;47.202;15.258;2022-10-16T05:12:26;18.40;;;11.27;;
29378;SDS011;16362;47.202;15.258;2022-10-16T05:14:53;13.13;;;10.63;;
29378;SDS011;16362;47.202;15.258;2022-10-16T05:17:25;16.98;;;11.02;;
29378;SDS011;16362;47.202;15.258;2022-10-16T05:19:52;20.08;;;11.40;;
29378;SDS011;16362;47.202;15.258;2022-10-16T05:22:19;13.32;;;9.88;;
29378;SDS011;16362;47.202;15.258;2022-10-16T05:24:46;18.83;;;10.63;;
29378;SDS011;16362;47.202;15.258;2022-10-16T05:27:12;13.50;;;10.32;;
29378;SDS011;16362;47.202;15.258;2022-10-16T05:29:45;20.90;;;10.43;;
29378;SDS011;16362;47.202;15.258;2022-10-16T05:32:13;13.55;;;9.75;;
29378;SDS011;16362;47.202;15.258;2022-10-16T05:34:41;11.48;;;10.27;;
29378;SDS011;16362;47.202;15.258;2022-10-16T05:37:08;13.65;;;9.48;;
29378;SDS011;16362;47.202;15.258;2022-10-16T05:39:35;12.93;;;9.60;;
29378;SDS011;16362;47.202;15.258;2022-10-16T05:42:03;13.70;;;10.02;;
29378;SDS011;16362;47.202;15.258;2022-10-16T05:44:30;23.55;;;9.55;;
29378;SDS011;16362;47.202;15.258;2022-10-16T05:47:00;13.07;;;8.68;;
29378;SDS011;16362;47.202;15.258;2022-10-16T05:49:27;13.80;;;9.77;;
29378;SDS011;16362;47.202;15.258;2022-10-16T05:51:53;11.02;;;8.50;;
29378;SDS011;16362;47.202;15.258;2022-10-16T05:54:20;12.10;;;9.27;;
29378;SDS011;16362;47.202;15.258;2022-10-16T05:56:47;17.33;;;10.02;;
29378;SDS011;16362;47.202;15.258;2022-10-16T05:59:13;11.63;;;9.40;;
29378;SDS011;16362;47.202;15.258;2022-10-16T06:01:40;21.98;;;8.82;;
29378;SDS011;16362;47.202;15.258;2022-10-16T06:04:07;16.42;;;9.13;;
29378;SDS011;16362;47.202;15.258;2022-10-16T06:06:52;15.80;;;9.23;;
29378;SDS011;16362;47.202;15.258;2022-10-16T06:09:19;17.35;;;9.52;;
29378;SDS011;16362;47.202;15.258;2022-10-16T06:11:45;15.80;;;9.13;;
29378;SDS011;16362;47.202;15.258;2022-10-16T06:14:12;15.48;;;10.95;;
29378;SDS011;16362;47.202;15.258;2022-10-16T06:16:39;16.17;;;10.75;;
29378;SDS011;16362;47.202;15.258;2022-10-16T06:19:05;20.58;;;9.75;;
29378;SDS011;16362;47.202;15.258;2022-10-16T06:21:34;12.95;;;9.48;;
29378;SDS011;16362;47.202;15.258;2022-10-16T06:24:01;10.02;;;8.88;;
29378;SDS011;16362;47.202;15.258;2022-10-16T06:26:29;12.50;;;8.63;;
29378;SDS011;16362;47.202;15.258;2022-10-16T06:28:57;14.30;;;8.32;;
29378;SDS011;16362;47.202;15.258;2022-10-16T06:31:26;9.85;;;7.90;;
29378;SDS011;16362;47.202;15.258;2022-10-16T06:33:55;22.52;;;10.52;;
29378;SDS011;16362;47.202;15.258;2022-10-16T06:36:23;11.10;;;10.00;;
29378;SDS011;16362;47.202;15.258;2022-10-16T06:38:51;9.20;;;8.40;;
29378;SDS011;16362;47.202;15.258;2022-10-16T06:41:19;15.43;;;8.18;;
29378;SDS011;16362;47.202;15.258;2022-10-16T06:43:47;15.50;;;7.88;;
29378;SDS011;16362;47.202;15.258;2022-10-16T06:46:15;8.90;;;8.20;;
29378;SDS011;16362;47.202;15.258;2022-10-16T06:48:44;8.90;;;7.95;;
29378;SDS011;16362;47.202;15.258;2022-10-16T06:51:12;8.00;;;7.47;;
29378;SDS011;16362;47.202;15.258;2022-10-16T06:53:42;20.75;;;8.32;;
29378;SDS011;16362;47.202;15.258;2022-10-16T06:56:29;13.02;;;8.07;;
29378;SDS011;16362;47.202;15.258;2022-10-16T06:58:57;9.38;;;7.93;;
29378;SDS011;16362;47.202;15.258;2022-10-16T07:01:25;8.35;;;7.65;;
29378;SDS011;16362;47.202;15.258;2022-10-16T07:03:52;14.10;;;7.97;;
29378;SDS011;16362;47.202;15.258;2022-10-16T07:06:20;9.57;;;7.85;;
29378;SDS011;16362;47.202;15.258;2022-10-16T07:08:49;11.75;;;8.82;;
29378;SDS011;16362;47.202;15.258;2022-10-16T07:11:17;8.40;;;7.38;;
29378;SDS011;16362;47.202;15.258;2022-10-16T07:13:45;10.23;;;8.48;;
29378;SDS011;16362;47.202;15.258;2022-10-16T07:16:20;8.77;;;7.97;;
29378;SDS011;16362;47.202;15.258;2022-10-16T07:18:49;13.95;;;11.77;;
29378;SDS011;16362;47.202;15.258;2022-10-16T07:21:21;41.03;;;23.10;;
29378;SDS011;16362;47.202;15.258;2022-10-16T07:23:55;30.17;;;20.98;;
29378;SDS011;16362;47.202;15.258;2022-10-16T07:28:51;17.45;;;12.82;;
29378;SDS011;16362;47.202;15.258;2022-10-16T07:31:19;11.88;;;10.32;;
29378;SDS011;16362;47.202;15.258;2022-10-16T07:33:46;12.75;;;10.32;;
29378;SDS011;16362;47.202;15.258;2022-10-16T07:36:15;9.85;;;8.90;;
29378;SDS011;16362;47.202;15.258;2022-10-16T07:38:43;12.48;;;8.98;;
29378;SDS011;16362;47.202;15.258;2022-10-16T07:41:11;12.07;;;9.80;;
29378;SDS011;16362;47.202;15.258;2022-10-16T07:43:40;17.48;;;10.02;;
29378;SDS011;16362;47.202;15.258;2022-10-16T07:46:12;11.45;;;10.38;;
29378;SDS011;16362;47.202;15.258;2022-10-16T07:48:39;16.95;;;11.45;;
29378;SDS011;16362;47.202;15.258;2022-10-16T07:51:06;17.58;;;11.27;;
29378;SDS011;16362;47.202;15.258;2022-10-16T07:53:33;12.18;;;10.80;;
29378;SDS011;16362;47.202;15.258;2022-10-16T07:56:01;19.60;;;11.50;;
29378;SDS011;16362;47.202;15.258;2022-10-16T07:58:29;14.88;;;12.23;;
29378;SDS011;16362;47.202;15.258;2022-10-16T08:00:57;14.98;;;10.32;;
29378;SDS011;16362;47.202;15.258;2022-10-16T08:03:24;12.90;;;11.55;;
29378;SDS011;16362;47.202;15.258;2022-10-16T08:05:52;20.73;;;11.48;;
29378;SDS011;16362;47.202;15.258;2022-10-16T08:08:18;28.83;;;13.52;;
29378;SDS011;16362;47.202;15.258;2022-10-16T08:10:46;15.60;;;11.52;;
29378;SDS011;16362;47.202;15.258;2022-10-16T08:13:12;13.15;;;11.85;;
29378;SDS011;16362;47.202;15.258;2022-10-16T08:15:42;15.48;;;11.75;;
29378;SDS011;16362;47.202;15.258;2022-10-16T08:18:09;15.02;;;10.50;;
29378;SDS011;16362;47.202;15.258;2022-10-16T08:20:37;12.45;;;11.02;;
29378;SDS011;16362;47.202;15.258;2022-10-16T08:23:05;17.00;;;11.65;;
29378;SDS011;16362;47.202;15.258;2022-10-16T08:25:34;17.42;;;11.40;;
29378;SDS011;16362;47.202;15.258;2022-10-16T08:28:02;17.33;;;10.93;;
29378;SDS011;16362;47.202;15.258;2022-10-16T08:30:31;12.93;;;10.73;;
29378;SDS011;16362;47.202;15.258;2022-10-16T08:32:58;13.88;;;11.82;;
29378;SDS011;16362;47.202;15.258;2022-10-16T08:35:24;12.45;;;11.15;;
29378;SDS011;16362;47.202;15.258;2022-10-16T08:37:51;11.88;;;10.40;;
29378;SDS011;16362;47.202;15.258;2022-10-16T08:40:20;19.38;;;11.63;;
29378;SDS011;16362;47.202;15.258;2022-10-16T08:42:59;18.23;;;11.07;;
29378;SDS011;16362;47.202;15.258;2022-10-16T08:48:46;75.50;;;50.65;;
29378;SDS011;16362;47.202;15.258;2022-10-16T08:51:25;23.35;;;17.05;;
29378;SDS011;16362;47.202;15.258;2022-10-16T08:53:56;19.25;;;12.52;;
29378;SDS011;16362;47.202;15.258;2022-10-16T08:56:25;13.68;;;11.52;;
29378;SDS011;16362;47.202;15.258;2022-10-16T08:58:52;18.00;;;11.88;;
29378;SDS011;16362;47.202;15.258;2022-10-16T09:01:37;12.75;;;11.40;;
29378;SDS011;16362;47.202;15.258;2022-10-16T09:23:44;12.13;;;11.02;;
29378;SDS011;16362;47.202;15.258;2022-10-16T09:26:12;15.50;;;12.10;;
29378;SDS011;16362;47.202;15.258;2022-10-16T09:28:40;17.35;;;11.88;;
29378;SDS011;16362;47.202;15.258;2022-10-16T09:31:11;16.40;;;11.55;;
29378;SDS011;16362;47.202;15.258;2022-10-16T09:33:42;15.10;;;12.95;;
29378;SDS011;16362;47.202;15.258;2022-10-16T09:36:10;20.77;;;12.35;;
29378;SDS011;16362;47.202;15.258;2022-10-16T09:38:39;20.98;;;12.02;;
29378;SDS011;16362;47.202;15.258;2022-10-16T09:41:16;14.50;;;13.00;;
29378;SDS011;16362;47.202;15.258;2022-10-16T09:49:31;13.77;;;12.45;;
29378;SDS011;16362;47.202;15.258;2022-10-16T09:52:13;18.77;;;12.90;;
29378;SDS011;16362;47.202;15.258;2022-10-16T09:57:24;20.45;;;12.63;;
29378;SDS011;16362;47.202;15.258;2022-10-16T09:59:53;13.52;;;11.38;;
29378;SDS011;16362;47.202;15.258;2022-10-16T10:05:00;13.90;;;11.10;;
29378;SDS011;16362;47.202;15.258;2022-10-16T10:07:30;12.88;;;11.77;;
29378;SDS011;16362;47.202;15.258;2022-10-16T10:10:01;16.45;;;11.32;;
29378;SDS011;16362;47.202;15.258;2022-10-16T10:12:30;16.17;;;11.93;;
29378;SDS011;16362;47.202;15.258;2022-10-16T10:15:07;12.65;;;11.65;;
29378;SDS011;16362;47.202;15.258;2022-10-16T10:17:51;39.78;;;24.15;;
29378;SDS011;16362;47.202;15.258;2022-10-16T10:20:26;18.35;;;12.93;;
29378;SDS011;16362;47.202;15.258;2022-10-16T10:22:55;14.80;;;12.13;;
29378;SDS011;16362;47.202;15.258;2022-10-16T10:25:25;17.10;;;12.93;;
29378;SDS011;16362;47.202;15.258;2022-10-16T10:36:25;11.93;;;10.85;;
29378;SDS011;16362;47.202;15.258;2022-10-16T10:38:58;12.00;;;10.95;;
29378;SDS011;16362;47.202;15.258;2022-10-16T10:44:03;12.07;;;10.90;;
29378;SDS011;16362;47.202;15.258;2022-10-16T10:46:48;18.75;;;10.85;;
29378;SDS011;16362;47.202;15.258;2022-10-16T10:49:42;25.08;;;11.07;;
29378;SDS011;16362;47.202;15.258;2022-10-16T11:01:08;19.77;;;9.88;;
29378;SDS011;16362;47.202;15.258;2022-10-16T11:06:26;10.43;;;9.73;;
29378;SDS011;16362;47.202;15.258;2022-10-16T11:09:18;10.35;;;9.57;;
29378;SDS011;16362;47.202;15.258;2022-10-16T11:17:13;11.20;;;10.20;;
29378;SDS011;16362;47.202;15.258;2022-10-16T11:19:55;11.50;;;10.45;;
29378;SDS011;16362;47.202;15.258;2022-10-16T11:25:23;12.05;;;10.77;;
29378;SDS011;16362;47.202;15.258;2022-10-16T11:27:55;10.93;;;9.82;;
29378;SDS011;16362;47.202;15.258;2022-10-16T11:30:28;12.10;;;10.93;;
29378;SDS011;16362;47.202;15.258;2022-10-16T11:35:43;11.52;;;10.52;;
29378;SDS011;16362;47.202;15.258;2022-10-16T11:40:59;11.35;;;10.38;;
29378;SDS011;16362;47.202;15.258;2022-10-16T11:43:32;11.27;;;9.87;;
29378;SDS011;16362;47.202;15.258;2022-10-16T11:46:15;11.40;;;10.40;;
29378;SDS011;16362;47.202;15.258;2022-10-16T11:54:20;10.25;;;9.52;;
29378;SDS011;16362;47.202;15.258;2022-10-16T11:56:55;10.27;;;9.38;;
29378;SDS011;16362;47.202;15.258;2022-10-16T12:02:30;11.80;;;10.43;;
29378;SDS011;16362;47.202;15.258;2022-10-16T12:10:38;11.43;;;10.30;;
29378;SDS011;16362;47.202;15.258;2022-10-16T12:16:25;12.45;;;11.43;;
29378;SDS011;16362;47.202;15.258;2022-10-16T12:19:02;12.02;;;10.88;;
29378;SDS011;16362;47.202;15.258;2022-10-16T12:21:37;12.52;;;11.27;;
29378;SDS011;16362;47.202;15.258;2022-10-16T12:24:04;12.57;;;11.32;;
29378;SDS011;16362;47.202;15.258;2022-10-16T12:26:32;12.10;;;10.90;;
29378;SDS011;16362;47.202;15.258;2022-10-16T12:29:12;15.20;;;11.50;;
29378;SDS011;16362;47.202;15.258;2022-10-16T12:31:53;13.50;;;12.20;;
29378;SDS011;16362;47.202;15.258;2022-10-16T12:39:47;15.63;;;10.75;;
29378;SDS011;16362;47.202;15.258;2022-10-16T12:42:22;14.77;;;10.32;;
29378;SDS011;16362;47.202;15.258;2022-10-16T12:44:50;11.32;;;10.27;;
29378;SDS011;16362;47.202;15.258;2022-10-16T12:47:24;10.77;;;10.00;;
29378;SDS011;16362;47.202;15.258;2022-10-16T12:50:03;11.82;;;10.63;;
29378;SDS011;16362;47.202;15.258;2022-10-16T12:52:49;11.73;;;10.55;;
29378;SDS011;16362;47.202;15.258;2022-10-16T12:55:16;19.77;;;11.00;;
29378;SDS011;16362;47.202;15.258;2022-10-16T13:00:41;12.68;;;11.40;;
29378;SDS011;16362;47.202;15.258;2022-10-16T13:08:56;12.27;;;10.85;;
29378;SDS011;16362;47.202;15.258;2022-10-16T13:12:11;14.45;;;11.50;;
29378;SDS011;16362;47.202;15.258;2022-10-16T13:14:35;13.30;;;11.75;;
29378;SDS011;16362;47.202;15.258;2022-10-16T13:20:21;17.38;;;11.02;;
29378;SDS011;16362;47.202;15.258;2022-10-16T13:25:36;14.88;;;13.18;;
29378;SDS011;16362;47.202;15.258;2022-10-16T13:28:11;18.75;;;12.20;;
29378;SDS011;16362;47.202;15.258;2022-10-16T13:30:40;24.80;;;13.05;;
29378;SDS011;16362;47.202;15.258;2022-10-16T13:33:21;18.08;;;13.90;;
29378;SDS011;16362;47.202;15.258;2022-10-16T13:36:02;25.83;;;14.95;;
29378;SDS011;16362;47.202;15.258;2022-10-16T13:38:31;18.50;;;13.32;;
29378;SDS011;16362;47.202;15.258;2022-10-16T13:41:04;16.88;;;14.82;;
29378;SDS011;16362;47.202;15.258;2022-10-16T13:43:45;28.50;;;14.30;;
29378;SDS011;16362;47.202;15.258;2022-10-16T13:46:19;16.70;;;14.13;;
29378;SDS011;16362;47.202;15.258;2022-10-16T13:48:57;22.25;;;14.63;;
29378;SDS011;16362;47.202;15.258;2022-10-16T13:51:24;21.80;;;14.88;;
29378;SDS011;16362;47.202;15.258;2022-10-16T13:53:52;21.63;;;14.27;;
29378;SDS011;16362;47.202;15.258;2022-10-16T13:56:21;23.10;;;14.40;;
29378;SDS011;16362;47.202;15.258;2022-10-16T13:59:00;20.05;;;14.35;;
29378;SDS011;16362;47.202;15.258;2022-10-16T14:01:30;26.95;;;15.57;;
29378;SDS011;16362;47.202;15.258;2022-10-16T14:04:05;36.95;;;15.20;;
29378;SDS011;16362;47.202;15.258;2022-10-16T14:06:33;34.65;;;14.60;;
29378;SDS011;16362;47.202;15.258;2022-10-16T14:11:41;25.02;;;15.45;;
29378;SDS011;16362;47.202;15.258;2022-10-16T14:14:14;25.60;;;14.93;;
29378;SDS011;16362;47.202;15.258;2022-10-16T14:16:42;20.10;;;15.27;;
29378;SDS011;16362;47.202;15.258;2022-10-16T14:19:15;20.90;;;15.35;;
29378;SDS011;16362;47.202;15.258;2022-10-16T14:21:46;20.42;;;14.93;;
29378;SDS011;16362;47.202;15.258;2022-10-16T14:24:19;21.67;;;14.35;;
29378;SDS011;16362;47.202;15.258;2022-10-16T14:26:51;20.58;;;15.60;;
29378;SDS011;16362;47.202;15.258;2022-10-16T14:29:21;28.60;;;15.85;;
29378;SDS011;16362;47.202;15.258;2022-10-16T14:31:55;25.95;;;14.80;;
29378;SDS011;16362;47.202;15.258;2022-10-16T14:34:23;23.95;;;15.93;;
29378;SDS011;16362;47.202;15.258;2022-10-16T14:37:14;24.38;;;15.50;;
29378;SDS011;16362;47.202;15.258;2022-10-16T14:39:42;22.10;;;15.48;;
29378;SDS011;16362;47.202;15.258;2022-10-16T14:42:13;23.13;;;15.13;;
29378;SDS011;16362;47.202;15.258;2022-10-16T14:44:42;26.00;;;16.25;;
29378;SDS011;16362;47.202;15.258;2022-10-16T14:47:12;21.30;;;15.98;;
29378;SDS011;16362;47.202;15.258;2022-10-16T14:49:42;25.00;;;15.70;;
29378;SDS011;16362;47.202;15.258;2022-10-16T14:52:10;24.67;;;15.95;;
29378;SDS011;16362;47.202;15.258;2022-10-16T14:54:38;25.00;;;15.85;;
29378;SDS011;16362;47.202;15.258;2022-10-16T14:57:05;27.15;;;15.55;;
29378;SDS011;16362;47.202;15.258;2022-10-16T14:59:36;22.75;;;16.52;;
29378;SDS011;16362;47.202;15.258;2022-10-16T15:02:23;21.48;;;15.45;;
29378;SDS011;16362;47.202;15.258;2022-10-16T15:05:22;23.15;;;15.90;;
29378;SDS011;16362;47.202;15.258;2022-10-16T15:07:51;25.13;;;15.45;;
29378;SDS011;16362;47.202;15.258;2022-10-16T15:10:23;27.73;;;14.70;;
29378;SDS011;16362;47.202;15.258;2022-10-16T15:12:52;27.65;;;15.30;;
29378;SDS011;16362;47.202;15.258;2022-10-16T15:17:49;25.67;;;14.43;;
29378;SDS011;16362;47.202;15.258;2022-10-16T15:20:22;21.15;;;14.35;;
29378;SDS011;16362;47.202;15.258;2022-10-16T15:22:50;17.98;;;13.73;;
29378;SDS011;16362;47.202;15.258;2022-10-16T15:27:56;22.35;;;13.23;;
29378;SDS011;16362;47.202;15.258;2022-10-16T15:30:23;27.88;;;13.60;;
29378;SDS011;16362;47.202;15.258;2022-10-16T15:32:50;32.33;;;14.55;;
29378;SDS011;16362;47.202;15.258;2022-10-16T15:35:16;25.98;;;14.07;;
29378;SDS011;16362;47.202;15.258;2022-10-16T15:37:43;16.95;;;13.75;;
29378;SDS011;16362;47.202;15.258;2022-10-16T15:40:10;30.45;;;14.40;;
29378;SDS011;16362;47.202;15.258;2022-10-16T15:42:37;22.10;;;14.13;;
29378;SDS011;16362;47.202;15.258;2022-10-16T15:45:04;16.50;;;14.38;;
29378;SDS011;16362;47.202;15.258;2022-10-16T15:47:32;21.45;;;14.32;;
29378;SDS011;16362;47.202;15.258;2022-10-16T15:49:59;23.95;;;14.80;;
29378;SDS011;16362;47.202;15.258;2022-10-16T15:52:26;17.92;;;14.50;;
29378;SDS011;16362;47.202;15.258;2022-10-16T15:54:53;19.50;;;14.65;;
29378;SDS011;16362;47.202;15.258;2022-10-16T15:57:20;24.15;;;14.55;;
29378;SDS011;16362;47.202;15.258;2022-10-16T15:59:47;20.95;;;15.45;;
29378;SDS011;16362;47.202;15.258;2022-10-16T16:02:14;20.90;;;14.90;;
29378;SDS011;16362;47.202;15.258;2022-10-16T16:04:41;27.42;;;14.65;;
29378;SDS011;16362;47.202;15.258;2022-10-16T16:07:10;22.02;;;14.95;;
29378;SDS011;16362;47.202;15.258;2022-10-16T16:09:37;20.95;;;16.05;;
29378;SDS011;16362;47.202;15.258;2022-10-16T16:12:04;21.08;;;15.25;;
29378;SDS011;16362;47.202;15.258;2022-10-16T16:14:31;21.92;;;14.57;;
29378;SDS011;16362;47.202;15.258;2022-10-16T16:16:58;19.63;;;14.48;;
29378;SDS011;16362;47.202;15.258;2022-10-16T16:19:25;24.60;;;15.43;;
29378;SDS011;16362;47.202;15.258;2022-10-16T16:21:51;19.38;;;14.25;;
29378;SDS011;16362;47.202;15.258;2022-10-16T16:24:18;18.92;;;15.23;;
29378;SDS011;16362;47.202;15.258;2022-10-16T16:26:45;15.98;;;14.30;;
29378;SDS011;16362;47.202;15.258;2022-10-16T16:29:13;21.77;;;15.32;;
29378;SDS011;16362;47.202;15.258;2022-10-16T16:31:41;23.00;;;15.95;;
29378;SDS011;16362;47.202;15.258;2022-10-16T16:34:08;17.85;;;14.85;;
29378;SDS011;16362;47.202;15.258;2022-10-16T16:36:35;21.50;;;16.25;;
29378;SDS011;16362;47.202;15.258;2022-10-16T16:39:02;26.77;;;15.55;;
29378;SDS011;16362;47.202;15.258;2022-10-16T16:41:29;18.55;;;15.32;;